createdAt,value
2019-01-21T00:02:32.791Z,16.03
2019-01-21T00:05:03.616Z,12.43
2019-01-21T00:07:37.116Z,15.73
2019-01-21T00:10:09.168Z,12.87
2019-01-21T00:12:40.539Z,15.57
2019-01-21T00:15:14.612Z,16.40
2019-01-21T00:17:46.477Z,15.87
2019-01-21T00:20:17.308Z,16.40
2019-01-21T00:22:48.704Z,16.63
2019-01-21T00:25:21.299Z,13.00
2019-01-21T00:27:52.443Z,13.47
2019-01-21T00:30:23.560Z,15.37
2019-01-21T00:32:54.788Z,14.53
2019-01-21T00:35:25.616Z,15.60
2019-01-21T00:37:56.335Z,15.13
2019-01-21T00:40:27.240Z,15.80
2019-01-21T00:42:58.190Z,16.73
2019-01-21T00:45:31.493Z,14.13
2019-01-21T00:48:03.559Z,17.13
2019-01-21T00:50:34.397Z,14.63
2019-01-21T00:53:05.622Z,12.70
2019-01-21T00:55:36.716Z,15.47
2019-01-21T00:58:10.379Z,15.97
2019-01-21T01:00:41.600Z,12.07
2019-01-21T01:03:14.918Z,12.43
2019-01-21T01:05:46.356Z,14.47
2019-01-21T01:08:17.181Z,12.43
2019-01-21T01:10:48.029Z,13.60
2019-01-21T01:13:18.767Z,13.23
2019-01-21T01:15:49.582Z,12.53
2019-01-21T01:18:22.885Z,13.20
2019-01-21T01:20:53.743Z,12.73
2019-01-21T01:23:24.530Z,14.57
2019-01-21T01:25:55.829Z,15.07
2019-01-21T01:28:26.625Z,13.03
2019-01-21T01:30:58.674Z,14.67
2019-01-21T01:33:29.705Z,10.40
2019-01-21T01:36:01.595Z,13.73
2019-01-21T01:38:42.740Z,14.83
2019-01-21T01:41:14.791Z,14.60
2019-01-21T01:43:45.955Z,14.40
2019-01-21T01:46:19.062Z,12.53
2019-01-21T01:48:49.988Z,14.47
2019-01-21T01:51:21.795Z,15.13
2019-01-21T01:53:52.710Z,14.60
2019-01-21T01:56:23.501Z,14.83
2019-01-21T01:58:54.368Z,12.40
2019-01-21T02:01:25.456Z,14.40
2019-01-21T02:03:56.256Z,15.10
2019-01-21T02:06:27.065Z,12.20
2019-01-21T02:08:59.964Z,14.67
2019-01-21T02:11:33.198Z,13.63
2019-01-21T02:14:04.397Z,14.10
2019-01-21T02:16:35.569Z,14.07
2019-01-21T02:19:06.355Z,12.93
2019-01-21T02:21:38.965Z,13.33
2019-01-21T02:24:10.027Z,16.03
2019-01-21T02:26:55.326Z,12.00
2019-01-21T02:30:01.174Z,15.23
2019-01-21T02:33:12.475Z,12.73
2019-01-21T02:36:38.823Z,14.13
2019-01-21T02:39:34.916Z,15.70
2019-01-21T02:42:34.955Z,15.13
2019-01-21T02:45:38.034Z,13.60
2019-01-21T02:48:45.757Z,15.27
2019-01-21T02:51:57.482Z,13.90
2019-01-21T02:54:59.965Z,18.43
2019-01-21T02:58:11.334Z,14.87
2019-01-21T03:01:06.503Z,13.33
2019-01-21T03:04:09.620Z,13.87
2019-01-21T03:06:56.811Z,12.97
2019-01-21T03:09:58.742Z,14.87
2019-01-21T03:13:09.093Z,11.87
2019-01-21T03:16:01.336Z,14.17
2019-01-21T03:19:15.016Z,18.23
2019-01-21T03:22:25.667Z,11.37
2019-01-21T03:25:41.939Z,16.13
2019-01-21T03:28:46.811Z,16.03
2019-01-21T03:32:06.462Z,13.93
2019-01-21T03:35:20.718Z,15.43
2019-01-21T03:39:02.692Z,16.80
2019-01-21T03:42:09.617Z,12.97
2019-01-21T03:45:39.870Z,14.33
2019-01-21T03:48:48.249Z,15.27
2019-01-21T03:52:18.050Z,14.70
2019-01-21T03:54:54.234Z,15.80
2019-01-21T03:57:34.031Z,14.90
2019-01-21T04:00:29.007Z,15.67
2019-01-21T04:03:47.170Z,16.73
2019-01-21T04:06:31.907Z,16.83
2019-01-21T04:09:31.574Z,14.97
2019-01-21T04:12:33.647Z,14.37
2019-01-21T04:16:08.051Z,15.57
2019-01-21T04:19:21.793Z,13.50
2019-01-21T04:22:11.038Z,17.40
2019-01-21T04:25:35.296Z,24.20
2019-01-21T04:28:38.093Z,20.17
2019-01-21T04:31:53.053Z,23.90
2019-01-21T04:34:56.576Z,28.87
2019-01-21T04:37:49.034Z,26.07
2019-01-21T04:40:39.880Z,26.63
2019-01-21T04:44:03.062Z,21.33
2019-01-21T04:47:27.278Z,24.83
2019-01-21T04:50:36.685Z,20.90
2019-01-21T04:53:49.600Z,19.93
2019-01-21T04:56:58.754Z,18.77
2019-01-21T05:00:18.998Z,15.17
2019-01-21T05:03:42.009Z,14.40
2019-01-21T05:06:57.237Z,16.20
2019-01-21T05:09:56.785Z,19.50
2019-01-21T05:12:56.259Z,19.10
2019-01-21T05:16:10.197Z,16.13
2019-01-21T05:19:17.308Z,13.77
2019-01-21T05:22:37.274Z,18.13
2019-01-21T05:25:58.307Z,18.23
2019-01-21T05:28:57.809Z,18.50
2019-01-21T05:31:55.403Z,19.00
2019-01-21T05:35:21.388Z,19.23
2019-01-21T05:38:22.554Z,17.50
2019-01-21T05:41:12.236Z,21.93
2019-01-21T05:44:22.535Z,17.50
2019-01-21T05:47:28.621Z,16.17
2019-01-21T05:50:40.736Z,22.97
2019-01-21T05:53:57.504Z,20.33
2019-01-21T05:56:53.467Z,17.97
2019-01-21T06:00:19.838Z,20.23
2019-01-21T06:03:33.510Z,18.07
2019-01-21T06:06:34.943Z,18.00
2019-01-21T06:09:37.991Z,20.33
2019-01-21T06:12:29.595Z,22.97
2019-01-21T06:15:27.915Z,20.67
2019-01-21T06:18:20.044Z,19.43
2019-01-21T06:21:27.879Z,21.90
2019-01-21T06:24:24.692Z,26.17
2019-01-21T06:27:30.512Z,29.80
2019-01-21T06:30:56.814Z,25.70
2019-01-21T06:34:18.696Z,30.30
2019-01-21T06:37:11.321Z,38.13
2019-01-21T06:40:24.555Z,37.00
2019-01-21T06:43:30.555Z,46.20
2019-01-21T06:46:40.426Z,51.03
2019-01-21T06:49:52.570Z,46.00
2019-01-21T06:52:48.863Z,45.77
2019-01-21T06:55:53.237Z,40.10
2019-01-21T06:58:55.386Z,44.50
2019-01-21T07:02:09.079Z,47.27
2019-01-21T07:05:10.627Z,48.73
2019-01-21T07:08:30.431Z,47.23
2019-01-21T07:11:49.827Z,42.77
2019-01-21T07:15:00.931Z,44.03
2019-01-21T07:18:26.022Z,50.07
2019-01-21T07:21:37.483Z,46.10
2019-01-21T07:24:57.148Z,52.83
2019-01-21T07:27:41.021Z,48.70
2019-01-21T07:30:40.081Z,45.97
2019-01-21T07:34:23.289Z,40.87
2019-01-21T07:37:35.525Z,48.07
2019-01-21T07:40:44.564Z,44.67
2019-01-21T07:43:33.400Z,45.40
2019-01-21T07:46:39.144Z,45.53
2019-01-21T07:50:18.402Z,47.47
2019-01-21T07:53:31.594Z,51.83
2019-01-21T07:56:52.063Z,58.97
2019-01-21T08:00:06.816Z,61.53
2019-01-21T08:02:52.792Z,59.57
2019-01-21T08:06:00.120Z,60.23
2019-01-21T08:09:00.020Z,66.40
2019-01-21T08:11:59.097Z,55.70
2019-01-21T08:15:38.016Z,56.30
2019-01-21T08:18:58.480Z,57.80
2019-01-21T08:22:04.091Z,53.03
2019-01-21T08:25:05.894Z,55.20
2019-01-21T08:28:08.527Z,57.70
2019-01-21T08:31:22.045Z,51.33
2019-01-21T08:34:18.705Z,49.63
2019-01-21T08:37:15.632Z,45.73
2019-01-21T08:40:23.782Z,47.70
2019-01-21T08:43:47.702Z,47.40
2019-01-21T08:46:53.423Z,46.53
2019-01-21T08:49:49.503Z,37.93
2019-01-21T08:52:41.185Z,44.43
2019-01-21T08:55:49.496Z,46.73
2019-01-21T08:59:10.918Z,46.43
2019-01-21T09:02:01.805Z,36.23
2019-01-21T09:05:17.201Z,31.00
2019-01-21T09:08:58.847Z,31.37
2019-01-21T09:12:27.943Z,30.70
2019-01-21T09:15:39.807Z,33.17
2019-01-21T09:19:00.889Z,33.47
2019-01-21T09:22:05.125Z,33.43
2019-01-21T09:25:05.997Z,27.63
2019-01-21T09:28:19.194Z,27.67
2019-01-21T09:31:23.546Z,24.27
2019-01-21T09:34:12.101Z,32.10
2019-01-21T09:37:37.003Z,21.70
2019-01-21T09:40:57.539Z,24.20
2019-01-21T09:44:09.576Z,22.77
2019-01-21T09:46:51.017Z,23.87
2019-01-21T09:49:21.287Z,24.93
2019-01-21T09:52:19.281Z,20.83
2019-01-21T09:54:50.851Z,23.43
2019-01-21T09:57:29.428Z,25.17
2019-01-21T10:00:06.264Z,22.27
2019-01-21T10:02:43.461Z,24.43
2019-01-21T10:05:17.110Z,26.63
2019-01-21T10:08:25.696Z,20.87
2019-01-21T10:11:38.395Z,26.50
2019-01-21T10:14:50.903Z,28.67
2019-01-21T10:18:04.876Z,32.70
2019-01-21T10:21:07.533Z,24.97
2019-01-21T10:24:26.206Z,24.10
2019-01-21T10:27:36.039Z,25.40
2019-01-21T10:30:38.038Z,22.00
2019-01-21T10:34:10.604Z,15.47
2019-01-21T10:37:24.517Z,18.27
2019-01-21T10:40:10.919Z,22.03
2019-01-21T10:43:10.135Z,15.27
2019-01-21T10:46:10.564Z,16.30
2019-01-21T10:49:23.373Z,18.33
2019-01-21T10:52:39.811Z,11.40
2019-01-21T10:55:48.013Z,13.27
2019-01-21T10:58:51.284Z,11.90
2019-01-21T11:01:51.816Z,9.57
2019-01-21T11:04:41.352Z,11.33
2019-01-21T11:07:49.413Z,9.53
2019-01-21T11:10:52.055Z,9.03
2019-01-21T11:14:30.641Z,9.83
2019-01-21T11:17:47.965Z,8.73
2019-01-21T11:20:55.955Z,9.33
2019-01-21T11:23:55.167Z,10.67
2019-01-21T11:27:00.024Z,10.37
2019-01-21T11:30:07.971Z,11.67
2019-01-21T11:33:38.731Z,9.80
2019-01-21T11:37:08.023Z,10.00
2019-01-21T11:40:22.566Z,9.40
2019-01-21T11:43:54.613Z,25.73
2019-01-21T11:47:01.757Z,16.93
2019-01-21T11:50:12.986Z,15.07
2019-01-21T11:53:26.066Z,11.87
2019-01-21T11:56:25.739Z,12.03
2019-01-21T11:59:31.569Z,13.23
2019-01-21T12:02:16.868Z,9.67
2019-01-21T12:05:19.913Z,11.80
2019-01-21T12:08:29.162Z,8.50
2019-01-21T12:11:45.113Z,14.50
2019-01-21T12:14:54.003Z,12.10
2019-01-21T12:18:10.902Z,12.23
2019-01-21T12:21:33.671Z,11.10
2019-01-21T12:24:37.916Z,10.20
2019-01-21T12:27:45.462Z,11.10
2019-01-21T12:30:40.031Z,11.63
2019-01-21T12:33:47.908Z,10.93
2019-01-21T12:36:59.779Z,9.97
2019-01-21T12:39:58.106Z,9.30
2019-01-21T12:43:39.357Z,12.80
2019-01-21T12:46:47.053Z,10.47
2019-01-21T12:49:56.395Z,10.67
2019-01-21T12:53:02.857Z,12.37
2019-01-21T12:56:13.552Z,12.67
2019-01-21T12:59:23.485Z,12.03
2019-01-21T13:02:20.149Z,10.40
2019-01-21T13:05:17.468Z,10.57
2019-01-21T13:08:34.277Z,10.27
2019-01-21T13:11:41.930Z,12.73
2019-01-21T13:14:41.021Z,9.70
2019-01-21T13:17:56.660Z,9.47
2019-01-21T13:25:01.032Z,9.60
2019-01-21T13:28:14.627Z,10.03
2019-01-21T13:31:10.573Z,10.07
2019-01-21T13:34:19.169Z,12.43
2019-01-21T13:37:32.339Z,10.33
2019-01-21T13:40:49.417Z,14.70
2019-01-21T13:44:01.851Z,10.50
2019-01-21T13:47:10.786Z,9.57
2019-01-21T13:50:14.717Z,10.50
2019-01-21T13:53:22.362Z,8.40
2019-01-21T13:56:30.527Z,14.00
2019-01-21T13:59:33.282Z,11.93
2019-01-21T14:02:19.842Z,10.17
2019-01-21T14:05:30.850Z,12.07
2019-01-21T14:08:14.100Z,9.27
2019-01-21T14:11:36.501Z,11.33
2019-01-21T14:14:27.377Z,10.97
2019-01-21T14:17:50.679Z,8.90
2019-01-21T14:20:33.519Z,11.00
2019-01-21T14:23:34.841Z,14.60
2019-01-21T14:26:42.024Z,10.73
2019-01-21T14:29:27.496Z,12.13
2019-01-21T14:32:35.981Z,18.03
2019-01-21T14:35:42.033Z,13.70
2019-01-21T14:38:44.700Z,10.33
2019-01-21T14:41:57.678Z,11.87
2019-01-21T14:45:03.066Z,11.83
2019-01-21T14:48:19.481Z,11.87
2019-01-21T14:51:42.952Z,10.47
2019-01-21T14:54:35.449Z,11.67
2019-01-21T14:57:43.126Z,12.43
2019-01-21T15:00:54.969Z,11.37
2019-01-21T15:04:16.013Z,13.97
2019-01-21T15:07:25.867Z,14.03
2019-01-21T15:10:24.478Z,12.47
2019-01-21T15:13:38.935Z,13.20
2019-01-21T15:16:49.579Z,10.93
2019-01-21T15:20:30.330Z,12.93
2019-01-21T15:23:22.464Z,12.33
2019-01-21T15:26:52.043Z,13.40
2019-01-21T15:30:10.266Z,13.57
2019-01-21T15:33:10.249Z,13.00
2019-01-21T15:36:38.705Z,14.20
2019-01-21T15:40:02.279Z,14.47
2019-01-21T15:42:50.744Z,15.03
2019-01-21T15:46:03.228Z,13.97
2019-01-21T15:48:59.362Z,10.77
2019-01-21T15:52:00.016Z,12.63
2019-01-21T15:54:47.268Z,11.67
2019-01-21T15:57:29.567Z,14.20
2019-01-21T16:00:56.403Z,11.67
2019-01-21T16:04:21.062Z,12.60
2019-01-21T16:07:27.013Z,11.67
2019-01-21T16:10:41.192Z,11.23
2019-01-21T16:13:43.742Z,12.20
2019-01-21T16:17:20.277Z,13.97
2019-01-21T16:20:25.035Z,17.00
2019-01-21T16:23:48.566Z,13.97
2019-01-21T16:26:37.720Z,15.63
2019-01-21T16:29:42.554Z,10.83
2019-01-21T16:32:57.508Z,13.23
2019-01-21T16:35:52.231Z,15.77
2019-01-21T16:39:00.714Z,16.27
2019-01-21T16:42:13.363Z,13.63
2019-01-21T16:44:45.616Z,12.97
2019-01-21T16:47:19.187Z,13.43
2019-01-21T16:49:56.903Z,13.00
2019-01-21T16:52:29.218Z,13.17
2019-01-21T16:55:03.311Z,16.37
2019-01-21T16:57:34.482Z,13.30
2019-01-21T17:00:15.353Z,15.53
2019-01-21T17:02:49.217Z,15.90
2019-01-21T17:05:20.504Z,14.03
2019-01-21T17:07:51.762Z,13.67
2019-01-21T17:10:26.451Z,12.90
2019-01-21T17:12:57.428Z,13.97
2019-01-21T17:15:28.160Z,14.63
2019-01-21T17:17:59.443Z,12.60
2019-01-21T17:20:30.483Z,17.77
2019-01-21T17:23:04.357Z,16.40
2019-01-21T17:25:38.353Z,16.07
2019-01-21T17:28:12.096Z,17.20
2019-01-21T17:30:44.797Z,14.47
2019-01-21T17:33:20.019Z,11.93
2019-01-21T17:36:04.760Z,15.03
2019-01-21T17:38:34.937Z,13.97
2019-01-21T17:41:06.561Z,11.90
2019-01-21T17:43:38.136Z,14.97
2019-01-21T17:46:09.249Z,12.90
2019-01-21T17:48:48.717Z,15.33
2019-01-21T17:51:24.159Z,16.03
2019-01-21T17:53:55.348Z,14.87
2019-01-21T17:56:30.787Z,14.47
2019-01-21T17:59:04.250Z,12.30
2019-01-21T18:01:39.229Z,14.03
2019-01-21T18:04:10.856Z,18.80
2019-01-21T18:06:42.145Z,13.97
2019-01-21T18:09:33.700Z,12.87
2019-01-21T18:12:04.738Z,14.30
2019-01-21T18:14:42.465Z,16.27
2019-01-21T18:17:14.906Z,13.60
2019-01-21T18:19:48.362Z,13.80
2019-01-21T18:22:27.425Z,14.83
2019-01-21T18:25:06.958Z,15.30
2019-01-21T18:27:37.781Z,14.17
2019-01-21T18:30:12.059Z,13.73
2019-01-21T18:32:43.130Z,14.30
2019-01-21T18:35:18.712Z,13.87
2019-01-21T18:37:54.455Z,14.40
2019-01-21T18:40:28.886Z,14.80
2019-01-21T18:43:03.067Z,19.47
2019-01-21T18:45:34.097Z,15.53
2019-01-21T18:48:07.265Z,16.13
2019-01-21T18:50:51.562Z,16.10
2019-01-21T18:53:24.063Z,17.33
2019-01-21T18:55:55.013Z,16.37
2019-01-21T18:58:31.660Z,14.30
2019-01-21T19:01:04.747Z,15.97
2019-01-21T19:03:35.571Z,16.27
2019-01-21T19:06:09.910Z,15.57
2019-01-21T19:08:41.111Z,17.37
2019-01-21T19:11:32.153Z,17.03
2019-01-21T19:14:18.156Z,14.73
2019-01-21T19:16:57.692Z,16.33
2019-01-21T19:19:31.580Z,13.00
2019-01-21T19:22:07.681Z,16.77
2019-01-21T19:24:42.963Z,16.87
2019-01-21T19:27:13.974Z,17.63
2019-01-21T19:29:46.875Z,15.57
2019-01-21T19:32:21.312Z,13.83
2019-01-21T19:34:54.115Z,16.50
2019-01-21T19:37:29.540Z,12.87
2019-01-21T19:40:00.830Z,16.53
2019-01-21T19:42:31.837Z,12.63
2019-01-21T19:45:02.641Z,16.17
2019-01-21T19:47:39.432Z,16.30
2019-01-21T19:50:15.986Z,15.63
2019-01-21T19:52:47.040Z,15.20
2019-01-21T19:55:24.611Z,15.90
2019-01-21T19:57:58.444Z,14.93
2019-01-21T20:00:29.557Z,16.53
2019-01-21T20:03:00.472Z,14.80
2019-01-21T20:05:32.262Z,15.37
2019-01-21T20:08:05.035Z,15.13
2019-01-21T20:10:37.453Z,14.07
2019-01-21T20:13:10.226Z,16.97
2019-01-21T20:15:45.555Z,14.13
2019-01-21T20:18:17.914Z,17.27
2019-01-21T20:20:50.931Z,18.97
2019-01-21T20:23:21.976Z,13.00
2019-01-21T20:25:55.746Z,22.13
2019-01-21T20:28:27.064Z,13.73
2019-01-21T20:30:59.488Z,17.67
2019-01-21T20:33:31.116Z,13.63
2019-01-21T20:36:07.341Z,17.47
2019-01-21T20:38:47.972Z,15.37
2019-01-21T20:41:23.407Z,18.17
2019-01-21T20:43:54.806Z,15.67
2019-01-21T20:46:26.293Z,15.07
2019-01-21T20:48:59.138Z,19.37
2019-01-21T20:51:31.537Z,12.57
2019-01-21T20:54:05.448Z,17.53
2019-01-21T20:56:41.224Z,15.60
2019-01-21T20:59:15.299Z,13.40
2019-01-21T21:01:47.893Z,15.17
2019-01-21T21:04:21.882Z,15.03
2019-01-21T21:06:54.924Z,16.00
2019-01-21T21:09:40.365Z,15.97
2019-01-21T21:12:13.503Z,16.33
2019-01-21T21:14:46.125Z,17.03
2019-01-21T21:17:20.159Z,17.93
2019-01-21T21:19:58.881Z,16.00
2019-01-21T21:22:38.302Z,19.03
2019-01-21T21:25:14.114Z,15.13
2019-01-21T21:27:49.781Z,19.50
2019-01-21T21:30:31.998Z,17.80
2019-01-21T21:33:03.606Z,19.83
2019-01-21T21:35:37.888Z,20.97
2019-01-21T21:38:09.419Z,20.63
2019-01-21T21:40:40.656Z,21.63
2019-01-21T21:43:11.991Z,19.43
2019-01-21T21:45:44.271Z,21.33
2019-01-21T21:48:15.236Z,20.33
2019-01-21T21:50:47.201Z,19.80
2019-01-21T21:53:20.599Z,21.93
2019-01-21T21:56:01.015Z,23.97
2019-01-21T21:58:35.518Z,19.47
2019-01-21T22:01:07.044Z,19.30
2019-01-21T22:03:38.778Z,20.63
2019-01-21T22:06:10.306Z,21.23
2019-01-21T22:08:47.646Z,21.53
2019-01-21T22:11:24.882Z,21.93
2019-01-21T22:14:02.929Z,22.30
2019-01-21T22:16:34.861Z,20.73
2019-01-21T22:19:06.801Z,21.03
2019-01-21T22:21:37.833Z,20.77
2019-01-21T22:24:09.574Z,21.57
2019-01-21T22:26:46.358Z,18.13
2019-01-21T22:29:17.343Z,21.77
2019-01-21T22:31:48.531Z,20.27
2019-01-21T22:34:19.722Z,23.17
2019-01-21T22:36:50.481Z,19.90
2019-01-21T22:39:21.378Z,21.60
2019-01-21T22:41:56.403Z,18.03
2019-01-21T22:44:27.418Z,18.77
2019-01-21T22:46:58.358Z,18.80
2019-01-21T22:49:41.630Z,23.90
2019-01-21T22:52:16.413Z,20.50
2019-01-21T22:55:02.582Z,19.23
2019-01-21T22:57:39.910Z,19.40
2019-01-21T23:01:06.804Z,20.20
2019-01-21T23:03:37.771Z,22.23
2019-01-21T23:06:10.228Z,18.33
2019-01-21T23:08:45.235Z,21.07
2019-01-21T23:11:15.971Z,19.60
2019-01-21T23:13:47.414Z,18.37
2019-01-21T23:16:18.930Z,16.17
2019-01-21T23:18:51.016Z,19.80
2019-01-21T23:21:22.327Z,16.37
2019-01-21T23:23:54.601Z,19.43
2019-01-21T23:26:25.458Z,18.97
2019-01-21T23:28:56.553Z,20.47
2019-01-21T23:31:28.815Z,17.10
2019-01-21T23:33:59.699Z,17.50
2019-01-21T23:36:30.534Z,19.73
2019-01-21T23:39:02.145Z,23.90
2019-01-21T23:41:34.482Z,24.43
2019-01-21T23:44:09.558Z,22.57
2019-01-21T23:46:44.169Z,19.43
2019-01-21T23:49:18.375Z,18.47
2019-01-21T23:51:52.395Z,23.63
2019-01-21T23:54:23.316Z,20.13
2019-01-21T23:56:54.486Z,18.93
2019-01-21T23:59:25.383Z,18.50
